Time;durP1;ratioP1;P1;durP2;ratioP2;P2;SDS_P1;SDS_P2;PMS_P1;PMS_P2;Temp;Humidity;BMP_temperature;BMP_pressure;BME280_temperature;BME280_humidity;BME280_pressure;Samples;Min_cycle;Max_cycle;Signal;HPM_P1;HPM_P2
2021/01/14 00:02:03;;;;;;;5.77;4.03;;;6.60;86.30;;;;;;5091470;28;20627;-49
2021/01/14 00:04:30;;;;;;;8.23;3.90;;;6.70;86.80;;;;;;5091082;28;20656;-47
2021/01/14 00:06:58;;;;;;;5.80;4.10;;;6.70;87.00;;;;;;5090607;28;21005;-48
2021/01/14 00:09:24;;;;;;;5.20;3.83;;;6.70;86.60;;;;;;5089496;28;20655;-48
2021/01/14 00:11:52;;;;;;;9.20;4.40;;;6.70;86.50;;;;;;5091293;28;20696;-48
2021/01/14 00:14:19;;;;;;;9.23;3.93;;;6.60;86.30;;;;;;5089885;28;20619;-49
2021/01/14 00:16:45;;;;;;;5.63;4.60;;;6.60;86.20;;;;;;5091276;28;20662;-49
2021/01/14 00:19:12;;;;;;;4.63;3.60;;;6.60;86.50;;;;;;5090474;28;20635;-49
2021/01/14 00:21:40;;;;;;;4.67;4.03;;;6.60;86.10;;;;;;5091129;28;20665;-49
2021/01/14 00:24:08;;;;;;;7.07;4.83;;;6.60;86.60;;;;;;5089990;28;21230;-49
2021/01/14 00:26:35;;;;;;;3.57;2.40;;;6.60;86.40;;;;;;5090819;28;20646;-49
2021/01/14 00:29:02;;;;;;;9.30;3.87;;;6.60;85.80;;;;;;5090424;28;20705;-48
2021/01/14 00:31:29;;;;;;;6.43;4.73;;;6.50;85.80;;;;;;5089493;28;20684;-50
2021/01/14 00:33:56;;;;;;;14.70;6.83;;;6.60;87.30;;;;;;5089186;28;20665;-48
2021/01/14 00:36:31;;;;;;;4.67;3.23;;;6.70;86.40;;;;;;5090879;28;20641;-48
2021/01/14 00:38:58;;;;;;;5.50;3.97;;;6.70;86.60;;;;;;5090707;28;21047;-49
2021/01/14 00:41:27;;;;;;;6.50;3.40;;;6.60;87.30;;;;;;5090682;28;20657;-48
2021/01/14 00:43:54;;;;;;;5.63;3.30;;;6.70;87.80;;;;;;5090376;28;20683;-49
2021/01/14 00:46:20;;;;;;;6.10;3.17;;;6.70;87.90;;;;;;5088656;28;20663;-48
2021/01/14 00:48:47;;;;;;;8.50;3.77;;;6.70;87.70;;;;;;5089655;28;20962;-48
2021/01/14 00:51:14;;;;;;;4.13;3.73;;;6.70;88.20;;;;;;5090397;28;21041;-49
2021/01/14 00:53:41;;;;;;;8.07;4.10;;;6.70;88.70;;;;;;5089625;28;20687;-48
2021/01/14 00:56:07;;;;;;;9.20;3.63;;;6.70;88.80;;;;;;5090411;28;21098;-49
2021/01/14 00:58:35;;;;;;;8.13;3.80;;;6.70;88.80;;;;;;5090410;28;20658;-49
2021/01/14 01:01:02;;;;;;;8.30;3.87;;;6.80;88.40;;;;;;5090417;28;20622;-49
2021/01/14 01:03:29;;;;;;;8.73;4.07;;;6.80;88.10;;;;;;5089763;28;20693;-49
2021/01/14 01:05:56;;;;;;;10.87;5.40;;;6.80;87.80;;;;;;5088813;28;21132;-48
2021/01/14 01:08:23;;;;;;;8.47;4.70;;;6.80;88.50;;;;;;5089857;28;20655;-48
2021/01/14 01:10:50;;;;;;;9.23;4.00;;;6.70;88.30;;;;;;5089873;28;20682;-48
2021/01/14 01:13:16;;;;;;;5.50;4.10;;;6.80;88.40;;;;;;5090529;28;20653;-48
2021/01/14 01:15:45;;;;;;;6.27;3.87;;;6.80;88.80;;;;;;5089757;28;20655;-48
2021/01/14 01:18:12;;;;;;;4.53;3.70;;;6.80;88.80;;;;;;5089617;28;20760;-48
2021/01/14 01:20:39;;;;;;;3.37;3.10;;;6.80;88.80;;;;;;5089098;28;20696;-47
2021/01/14 01:23:05;;;;;;;7.30;3.67;;;6.80;88.70;;;;;;5089666;28;20676;-49
2021/01/14 01:25:32;;;;;;;6.90;2.80;;;6.80;88.90;;;;;;5089966;28;21214;-48
2021/01/14 01:27:59;;;;;;;6.00;3.30;;;6.80;89.50;;;;;;5086688;28;20696;-48
2021/01/14 01:30:25;;;;;;;7.03;4.50;;;6.80;89.20;;;;;;5089358;28;20776;-48
2021/01/14 01:32:53;;;;;;;4.63;3.87;;;6.70;89.40;;;;;;5089205;28;20690;-48
2021/01/14 01:35:20;;;;;;;6.30;3.33;;;6.70;89.80;;;;;;5089097;28;20648;-48
2021/01/14 01:37:46;;;;;;;6.93;4.80;;;6.70;90.00;;;;;;5089483;28;20653;-48
2021/01/14 01:40:14;;;;;;;8.23;4.30;;;6.80;90.20;;;;;;5089055;28;20626;-49
2021/01/14 01:42:41;;;;;;;5.67;4.63;;;6.80;90.20;;;;;;5089816;28;21251;-48
2021/01/14 01:45:08;;;;;;;12.43;4.30;;;6.80;90.40;;;;;;5088509;28;20658;-48
2021/01/14 01:47:36;;;;;;;5.70;4.30;;;6.90;90.40;;;;;;5087555;28;20682;-48
2021/01/14 01:50:05;;;;;;;7.40;4.50;;;6.90;90.40;;;;;;5089739;28;20629;-48
2021/01/14 01:52:33;;;;;;;7.50;4.23;;;6.90;90.50;;;;;;5088719;28;20668;-48
2021/01/14 01:55:00;;;;;;;6.13;4.00;;;7.00;90.50;;;;;;5079559;28;20679;-48
2021/01/14 01:57:27;;;;;;;12.70;5.57;;;7.00;90.40;;;;;;5089064;28;20693;-48
2021/01/14 01:59:54;;;;;;;4.60;4.20;;;7.00;90.30;;;;;;5089081;28;20963;-48
2021/01/14 02:02:22;;;;;;;9.83;4.87;;;7.00;90.20;;;;;;5089322;28;21130;-48
2021/01/14 02:04:49;;;;;;;5.60;4.00;;;6.90;90.30;;;;;;5089421;28;20654;-48
2021/01/14 02:07:22;;;;;;;6.07;4.13;;;6.80;90.50;;;;;;5092905;28;20658;-49
2021/01/14 02:09:48;;;;;;;4.93;4.23;;;6.80;90.90;;;;;;5091577;28;20653;-48
2021/01/14 02:12:15;;;;;;;8.90;5.17;;;6.70;91.00;;;;;;5092805;28;21250;-49
2021/01/14 02:14:42;;;;;;;7.30;4.70;;;6.60;91.40;;;;;;5091340;28;20707;-49
2021/01/14 02:17:09;;;;;;;5.00;4.47;;;6.70;91.60;;;;;;5090594;28;20696;-46
2021/01/14 02:19:38;;;;;;;9.10;4.73;;;6.70;91.70;;;;;;5092834;28;21146;-48
2021/01/14 02:22:13;;;;;;;7.90;4.40;;;6.70;91.60;;;;;;5092846;28;20658;-48
2021/01/14 02:24:42;;;;;;;5.47;4.30;;;6.80;92.00;;;;;;5091001;28;20630;-48
2021/01/14 02:27:10;;;;;;;8.40;4.83;;;6.80;91.80;;;;;;5092592;28;21063;-48
2021/01/14 02:29:36;;;;;;;7.90;6.07;;;6.80;91.60;;;;;;5092680;28;20673;-48
2021/01/14 02:32:03;;;;;;;6.17;4.17;;;6.90;91.50;;;;;;5078377;28;20684;-48
2021/01/14 02:34:30;;;;;;;8.33;4.77;;;6.90;91.40;;;;;;5072445;28;20656;-48
2021/01/14 02:36:57;;;;;;;6.80;5.00;;;7.00;91.30;;;;;;5077012;28;20696;-48
2021/01/14 02:39:24;;;;;;;7.00;5.40;;;6.90;91.10;;;;;;5092643;28;20630;-49
2021/01/14 02:41:50;;;;;;;5.93;5.33;;;7.00;91.20;;;;;;5092790;28;20659;-48
2021/01/14 02:44:18;;;;;;;5.77;4.87;;;6.90;91.00;;;;;;5091998;28;21026;-49
2021/01/14 02:46:45;;;;;;;5.13;4.03;;;6.90;91.10;;;;;;5092416;28;21134;-49
2021/01/14 02:49:11;;;;;;;7.43;5.57;;;7.00;91.10;;;;;;5091251;28;20696;-50
2021/01/14 02:51:42;;;;;;;5.93;5.07;;;7.00;91.10;;;;;;5090977;28;20688;-50
2021/01/14 02:54:09;;;;;;;6.47;5.23;;;7.00;90.90;;;;;;5092142;28;20658;-50
2021/01/14 02:56:37;;;;;;;6.03;4.63;;;7.00;90.90;;;;;;5090513;28;20621;-50
2021/01/14 02:59:04;;;;;;;9.37;5.83;;;7.00;91.00;;;;;;5091943;28;20701;-50
2021/01/14 03:01:31;;;;;;;8.07;5.60;;;6.90;90.80;;;;;;5091996;28;20653;-50
2021/01/14 03:03:58;;;;;;;6.10;5.20;;;6.90;91.00;;;;;;5091900;28;20998;-50
2021/01/14 03:06:25;;;;;;;8.47;5.50;;;6.90;91.00;;;;;;5091846;28;20695;-49
2021/01/14 03:08:52;;;;;;;6.87;4.83;;;6.90;91.00;;;;;;5092016;28;20655;-50
2021/01/14 03:11:25;;;;;;;5.97;5.43;;;6.90;91.00;;;;;;5089682;28;20693;-49
2021/01/14 03:13:52;;;;;;;8.77;5.57;;;6.90;91.10;;;;;;5090671;28;21150;-50
2021/01/14 03:16:19;;;;;;;11.70;6.00;;;6.90;90.90;;;;;;5091691;28;21227;-49
2021/01/14 03:18:48;;;;;;;7.13;5.23;;;6.90;90.60;;;;;;5091041;28;20701;-49
2021/01/14 03:21:18;;;;;;;9.67;5.40;;;6.90;90.10;;;;;;5089687;28;20636;-49
2021/01/14 03:23:45;;;;;;;6.10;5.50;;;6.80;90.00;;;;;;5091429;28;21155;-49
2021/01/14 03:26:12;;;;;;;7.40;5.83;;;6.80;90.10;;;;;;5091692;28;20634;-49
2021/01/14 03:28:39;;;;;;;7.53;5.93;;;6.90;90.10;;;;;;5089568;28;20679;-49
2021/01/14 03:31:06;;;;;;;10.00;5.80;;;6.90;90.00;;;;;;5091780;28;20631;-49
2021/01/14 03:33:32;;;;;;;6.97;6.10;;;6.90;89.80;;;;;;5091092;28;20665;-49
2021/01/14 03:36:00;;;;;;;10.23;7.33;;;7.00;89.60;;;;;;5091252;28;20669;-49
2021/01/14 03:38:27;;;;;;;12.40;6.07;;;7.00;89.60;;;;;;5090925;28;20719;-49
2021/01/14 03:40:53;;;;;;;7.73;6.93;;;7.10;89.50;;;;;;5091121;28;20651;-49
2021/01/14 03:43:20;;;;;;;6.30;5.70;;;7.10;89.40;;;;;;5089260;28;20618;-49
2021/01/14 03:45:47;;;;;;;9.90;5.93;;;7.00;89.10;;;;;;5091262;28;20678;-49
2021/01/14 03:48:14;;;;;;;10.43;6.03;;;7.10;89.10;;;;;;5089656;28;20649;-49
2021/01/14 03:50:41;;;;;;;9.80;6.90;;;7.10;89.10;;;;;;5090947;28;20674;-50
2021/01/14 03:53:09;;;;;;;7.00;5.47;;;7.10;89.00;;;;;;5091018;28;20688;-49
2021/01/14 03:55:35;;;;;;;9.10;6.70;;;7.10;88.90;;;;;;5091963;28;20626;-49
2021/01/14 03:58:02;;;;;;;6.37;5.17;;;7.10;88.50;;;;;;5091783;28;21024;-47
2021/01/14 04:00:29;;;;;;;11.77;7.43;;;7.00;88.20;;;;;;5090625;28;21247;-49
2021/01/14 04:02:56;;;;;;;10.90;6.23;;;7.10;88.10;;;;;;5092023;28;20665;-49
2021/01/14 04:05:22;;;;;;;12.73;7.03;;;7.10;87.80;;;;;;5089246;28;20774;-48
2021/01/14 04:07:49;;;;;;;12.23;5.90;;;7.10;87.50;;;;;;5089137;28;20807;-49
2021/01/14 04:10:17;;;;;;;9.77;5.50;;;7.10;87.00;;;;;;5091399;28;20638;-48
2021/01/14 04:12:43;;;;;;;10.67;6.10;;;7.10;86.60;;;;;;5092512;28;20693;-49
2021/01/14 04:15:11;;;;;;;20.43;7.00;;;7.10;85.70;;;;;;5091682;28;20961;-48
2021/01/14 04:17:38;;;;;;;7.70;5.60;;;7.10;85.40;;;;;;5091545;28;20673;-48
2021/01/14 04:20:05;;;;;;;9.00;6.40;;;7.10;85.30;;;;;;5091848;28;20627;-49
2021/01/14 04:22:32;;;;;;;12.10;6.10;;;7.00;84.80;;;;;;5089168;28;20620;-49
2021/01/14 04:25:02;;;;;;;5.43;4.73;;;7.00;84.80;;;;;;5090196;28;20648;-49
2021/01/14 04:27:30;;;;;;;6.30;4.20;;;7.00;84.10;;;;;;5089630;28;20694;-49
2021/01/14 04:29:57;;;;;;;10.80;6.07;;;7.00;82.80;;;;;;5078066;28;21281;-49
2021/01/14 04:32:24;;;;;;;5.60;3.80;;;7.00;81.40;;;;;;5089271;28;20704;-49
2021/01/14 04:34:51;;;;;;;3.97;3.50;;;7.00;81.10;;;;;;5077930;28;20657;-48
2021/01/14 04:37:17;;;;;;;12.40;4.60;;;7.00;80.20;;;;;;5069912;28;21221;-50
2021/01/14 04:39:44;;;;;;;6.27;3.13;;;7.00;79.40;;;;;;5070087;28;20654;-49
2021/01/14 04:42:11;;;;;;;4.97;3.13;;;6.90;78.80;;;;;;5072301;28;20630;-49
2021/01/14 04:44:38;;;;;;;3.63;2.93;;;6.90;78.20;;;;;;5090382;28;20641;-49
2021/01/14 04:47:07;;;;;;;3.97;3.13;;;6.90;77.70;;;;;;5090208;28;20672;-49
2021/01/14 04:49:34;;;;;;;3.20;2.30;;;6.90;77.20;;;;;;5089485;28;20632;-49
2021/01/14 04:52:03;;;;;;;6.93;2.53;;;6.90;75.00;;;;;;5089878;28;20690;-48
2021/01/14 04:54:33;;;;;;;3.40;2.30;;;6.90;73.40;;;;;;5089797;28;20618;-49
2021/01/14 04:57:17;;;;;;;5.47;2.43;;;6.80;71.50;;;;;;5089714;28;20706;-48
2021/01/14 04:59:46;;;;;;;5.33;1.93;;;6.80;71.10;;;;;;5088326;28;20708;-49
2021/01/14 05:02:15;;;;;;;3.90;1.70;;;6.80;70.50;;;;;;5074160;28;20716;-49
2021/01/14 05:04:42;;;;;;;3.10;2.00;;;6.80;70.30;;;;;;5074682;28;20685;-48
2021/01/14 05:07:08;;;;;;;8.97;2.90;;;6.80;69.70;;;;;;5089662;28;20661;-48
2021/01/14 05:09:38;;;;;;;5.17;2.37;;;6.80;68.70;;;;;;5081692;28;20619;-49
2021/01/14 05:12:06;;;;;;;3.13;1.70;;;6.80;68.80;;;;;;5085811;28;20689;-49
2021/01/14 05:14:33;;;;;;;3.67;1.60;;;6.80;68.10;;;;;;5083875;28;20752;-49
2021/01/14 05:17:01;;;;;;;4.83;1.60;;;6.80;68.00;;;;;;5089527;28;20645;-49
2021/01/14 05:19:28;;;;;;;4.73;1.77;;;6.70;67.70;;;;;;5077931;28;20655;-49
2021/01/14 05:21:54;;;;;;;3.03;1.93;;;6.70;67.80;;;;;;5069923;28;21176;-49
2021/01/14 05:24:21;;;;;;;3.23;2.10;;;6.80;67.70;;;;;;5085474;28;20626;-49
2021/01/14 05:26:48;;;;;;;3.37;1.50;;;6.70;67.90;;;;;;5089914;28;20633;-48
2021/01/14 05:29:15;;;;;;;5.20;2.00;;;6.70;68.00;;;;;;5090043;28;21173;-49
2021/01/14 05:31:42;;;;;;;2.60;1.53;;;6.70;68.00;;;;;;5089651;28;20657;-48
2021/01/14 05:34:10;;;;;;;6.90;2.13;;;6.70;67.80;;;;;;5089809;28;20641;-49
2021/01/14 05:36:53;;;;;;;5.70;2.17;;;6.80;67.50;;;;;;5090291;28;20647;-50
2021/01/14 05:39:20;;;;;;;5.67;1.60;;;6.80;67.40;;;;;;5075330;28;20657;-49
2021/01/14 05:41:47;;;;;;;5.70;1.80;;;6.70;67.40;;;;;;5073738;28;20645;-48
2021/01/14 05:44:14;;;;;;;2.43;1.40;;;6.70;67.40;;;;;;5073783;28;20961;-48
2021/01/14 05:46:40;;;;;;;2.10;1.43;;;6.70;67.50;;;;;;5073301;28;20945;-49
2021/01/14 05:49:10;;;;;;;10.23;3.00;;;6.70;67.60;;;;;;5075892;28;21230;-50
2021/01/14 05:51:37;;;;;;;6.60;2.30;;;6.70;67.80;;;;;;5093903;28;20654;-49
2021/01/14 05:54:06;;;;;;;8.60;1.80;;;6.70;67.70;;;;;;5093318;28;20660;-50
2021/01/14 05:56:34;;;;;;;2.37;1.63;;;6.70;67.60;;;;;;5093855;28;20636;-49
2021/01/14 05:59:01;;;;;;;4.13;1.40;;;6.70;67.70;;;;;;5093435;28;20681;-50
2021/01/14 06:01:28;;;;;;;4.27;1.80;;;6.70;68.00;;;;;;5091646;28;20626;-49
2021/01/14 06:03:54;;;;;;;2.50;2.17;;;6.70;68.00;;;;;;5093685;28;20652;-50
2021/01/14 06:06:22;;;;;;;4.77;1.70;;;6.70;67.90;;;;;;5093735;28;21192;-50
2021/01/14 06:08:49;;;;;;;4.53;2.80;;;6.70;68.20;;;;;;5093196;28;21256;-49
2021/01/14 06:11:22;;;;;;;3.80;2.10;;;6.70;68.90;;;;;;5094020;28;20618;-48
2021/01/14 06:13:49;;;;;;;5.70;2.27;;;6.60;68.00;;;;;;5092945;28;20688;-48
2021/01/14 06:16:16;;;;;;;4.23;2.20;;;6.60;68.10;;;;;;5092978;28;20624;-49
2021/01/14 06:19:06;;;;;;;6.23;2.47;;;6.60;68.60;;;;;;5092991;28;20660;-49
2021/01/14 06:21:46;;;;;;;5.67;3.20;;;6.50;68.80;;;;;;5072767;28;20735;-48
2021/01/14 06:24:20;;;;;;;6.37;2.53;;;6.60;69.10;;;;;;5073595;28;20694;-49
2021/01/14 06:26:47;;;;;;;6.13;2.17;;;6.50;69.10;;;;;;5092935;28;20618;-49
2021/01/14 06:29:18;;;;;;;4.43;2.17;;;6.50;69.10;;;;;;5092573;28;21210;-49
2021/01/14 06:31:45;;;;;;;2.73;2.00;;;6.50;68.90;;;;;;5091548;28;20722;-48
2021/01/14 06:34:12;;;;;;;2.90;2.50;;;6.50;68.50;;;;;;5092357;28;20628;-49
2021/01/14 06:36:39;;;;;;;1.73;1.63;;;6.50;68.90;;;;;;5093217;28;20630;-49
2021/01/14 06:39:12;;;;;;;5.40;1.50;;;6.40;68.60;;;;;;5093253;28;20700;-49
2021/01/14 06:41:40;;;;;;;2.37;1.50;;;6.40;68.70;;;;;;5092807;28;20658;-48
2021/01/14 06:44:07;;;;;;;1.27;1.17;;;6.40;68.80;;;;;;5091785;28;20660;-49
2021/01/14 06:46:35;;;;;;;5.87;2.70;;;6.40;69.00;;;;;;5092184;28;20747;-50
2021/01/14 06:49:13;;;;;;;6.80;1.53;;;6.50;69.20;;;;;;5092384;28;21001;-49
2021/01/14 06:51:55;;;;;;;5.93;1.20;;;6.50;68.70;;;;;;5091828;28;20650;-49
2021/01/14 06:54:24;;;;;;;4.33;2.37;;;6.40;68.50;;;;;;5092315;28;20642;-49
2021/01/14 06:56:58;;;;;;;3.80;1.57;;;6.40;68.80;;;;;;5092061;28;20708;-50
2021/01/14 06:59:25;;;;;;;5.73;2.53;;;6.30;68.40;;;;;;5092802;28;20618;-50
2021/01/14 07:02:29;;;;;;;6.20;2.07;;;6.30;68.80;;;;;;5092629;28;20668;-48
2021/01/14 07:05:02;;;;;;;6.60;2.30;;;6.20;68.80;;;;;;5092542;28;20617;-48
2021/01/14 07:07:47;;;;;;;4.33;2.27;;;6.30;68.90;;;;;;5092934;28;20647;-49
2021/01/14 07:10:16;;;;;;;3.73;1.93;;;6.20;68.60;;;;;;5093507;28;20673;-48
2021/01/14 07:12:44;;;;;;;5.53;2.27;;;6.20;68.50;;;;;;5093227;28;20708;-49
2021/01/14 07:15:11;;;;;;;5.80;2.30;;;6.20;68.50;;;;;;5093127;28;20625;-48
2021/01/14 07:17:39;;;;;;;3.83;1.73;;;6.20;68.80;;;;;;5092326;28;20650;-48
2021/01/14 07:20:09;;;;;;;5.00;2.20;;;6.20;68.80;;;;;;5092098;28;20621;-49
2021/01/14 07:22:39;;;;;;;3.03;1.63;;;6.30;69.00;;;;;;5091416;28;20659;-48
2021/01/14 07:25:07;;;;;;;3.60;1.97;;;6.30;68.70;;;;;;5091681;28;20650;-49
2021/01/14 07:27:36;;;;;;;4.30;1.77;;;6.30;68.40;;;;;;5091679;28;21239;-49
2021/01/14 07:30:05;;;;;;;5.97;2.10;;;6.40;67.80;;;;;;5089869;28;20694;-49
2021/01/14 07:32:51;;;;;;;4.70;2.30;;;6.40;67.60;;;;;;5090659;28;20658;-49
2021/01/14 07:35:37;;;;;;;4.03;1.80;;;6.40;68.10;;;;;;5091128;28;20696;-49
2021/01/14 07:38:03;;;;;;;7.33;1.80;;;6.40;67.70;;;;;;5089395;28;20653;-49
2021/01/14 07:40:30;;;;;;;5.60;2.20;;;6.40;68.00;;;;;;5091411;28;20617;-49
2021/01/14 07:42:58;;;;;;;4.27;1.63;;;6.40;68.10;;;;;;5091418;28;20645;-48
2021/01/14 07:45:25;;;;;;;5.57;3.53;;;6.40;68.00;;;;;;5091416;28;20620;-48
2021/01/14 07:47:52;;;;;;;3.57;2.30;;;6.40;67.90;;;;;;5091071;28;20673;-49
2021/01/14 07:50:20;;;;;;;4.67;2.60;;;6.40;68.00;;;;;;5090978;28;20681;-48
2021/01/14 07:52:47;;;;;;;6.93;2.00;;;6.50;67.70;;;;;;5091029;28;20697;-49
2021/01/14 07:55:24;;;;;;;9.43;3.73;;;6.40;67.50;;;;;;5091079;28;21197;-49
2021/01/14 07:58:03;;;;;;;7.20;1.97;;;6.40;67.20;;;;;;5090994;28;21061;-49
2021/01/14 08:00:30;;;;;;;4.17;2.13;;;6.40;67.80;;;;;;5091035;28;20693;-48
2021/01/14 08:03:10;;;;;;;9.13;3.03;;;6.40;67.60;;;;;;5091042;28;20632;-50
2021/01/14 08:05:38;;;;;;;5.33;1.80;;;6.40;67.30;;;;;;5090780;28;20667;-50
2021/01/14 08:08:26;;;;;;;2.90;1.67;;;6.40;67.40;;;;;;5090494;28;20656;-49
2021/01/14 08:11:12;;;;;;;3.50;2.50;;;6.40;67.30;;;;;;5091155;28;20617;-48
2021/01/14 08:14:04;;;;;;;2.57;1.40;;;6.40;67.60;;;;;;5090866;28;20737;-49
2021/01/14 08:16:32;;;;;;;9.90;2.13;;;6.40;67.00;;;;;;5063311;28;20703;-49
2021/01/14 08:19:12;;;;;;;4.57;1.63;;;6.40;67.20;;;;;;5070612;28;21105;-49
2021/01/14 08:21:38;;;;;;;6.83;2.33;;;6.40;67.50;;;;;;5071107;28;20625;-50
2021/01/14 08:24:05;;;;;;;6.27;2.50;;;6.40;67.60;;;;;;5071003;28;20629;-49
2021/01/14 08:26:53;;;;;;;2.83;1.70;;;6.40;67.60;;;;;;5070117;28;20974;-51
2021/01/14 08:29:45;;;;;;;3.47;1.70;;;6.40;67.60;;;;;;5071006;28;21237;-49
2021/01/14 08:32:35;;;;;;;3.53;1.70;;;6.40;67.10;;;;;;5076816;28;21253;-49
2021/01/14 08:35:04;;;;;;;5.30;2.43;;;6.40;67.20;;;;;;5091177;28;20629;-48
2021/01/14 08:37:32;;;;;;;4.90;2.30;;;6.40;67.20;;;;;;5091070;28;20654;-49
2021/01/14 08:40:00;;;;;;;4.83;2.10;;;6.40;67.30;;;;;;5091302;28;20624;-50
2021/01/14 08:42:31;;;;;;;4.00;2.50;;;6.30;67.20;;;;;;5090210;28;21133;-49
2021/01/14 08:45:01;;;;;;;5.03;2.20;;;6.30;67.70;;;;;;5090733;28;21234;-50
2021/01/14 08:48:05;;;;;;;5.00;2.97;;;6.40;68.00;;;;;;5089116;28;20652;-50
2021/01/14 08:50:45;;;;;;;5.77;2.97;;;6.40;67.90;;;;;;5046865;28;20661;-49
2021/01/14 08:53:12;;;;;;;8.23;3.43;;;6.50;69.10;;;;;;5048255;28;20808;-50
2021/01/14 08:55:40;;;;;;;4.60;2.70;;;6.60;69.20;;;;;;5072810;28;20632;-49
2021/01/14 08:58:07;;;;;;;7.23;3.40;;;6.60;68.20;;;;;;5090147;28;20657;-50
2021/01/14 09:00:36;;;;;;;4.40;2.93;;;6.60;68.00;;;;;;5088857;28;20753;-49
2021/01/14 09:03:04;;;;;;;3.87;3.13;;;6.70;67.90;;;;;;5090022;28;20925;-49
2021/01/14 09:05:31;;;;;;;6.80;3.27;;;6.70;67.80;;;;;;5088348;28;20634;-50
2021/01/14 09:08:05;;;;;;;7.63;2.60;;;6.70;67.60;;;;;;5089819;28;21275;-50
2021/01/14 09:10:45;;;;;;;8.17;2.57;;;6.70;67.60;;;;;;5089543;28;21263;-50
2021/01/14 09:13:12;;;;;;;2.83;1.70;;;6.80;67.40;;;;;;5089977;28;20805;-50
2021/01/14 09:15:40;;;;;;;2.60;2.00;;;6.80;67.40;;;;;;5091844;28;20662;-50
2021/01/14 09:18:07;;;;;;;3.33;2.27;;;6.80;67.10;;;;;;5093941;28;20684;-48
2021/01/14 09:20:34;;;;;;;6.03;2.73;;;6.80;66.70;;;;;;5093772;28;20618;-50
2021/01/14 09:23:19;;;;;;;7.97;2.50;;;6.90;66.30;;;;;;5093171;28;20631;-49
2021/01/14 09:25:47;;;;;;;8.93;2.80;;;6.90;66.00;;;;;;5093680;28;21151;-49
2021/01/14 09:28:14;;;;;;;6.33;2.63;;;7.00;66.00;;;;;;5093528;28;21308;-49
2021/01/14 09:30:42;;;;;;;5.03;2.43;;;7.00;65.90;;;;;;5093205;28;20657;-49
2021/01/14 09:33:09;;;;;;;7.03;2.80;;;7.00;66.20;;;;;;5093406;28;20708;-49
2021/01/14 09:35:36;;;;;;;3.07;2.43;;;7.00;66.10;;;;;;5091201;28;20754;-50
2021/01/14 09:38:03;;;;;;;8.40;3.23;;;7.10;65.30;;;;;;5093871;28;20788;-49
2021/01/14 09:40:30;;;;;;;8.10;2.70;;;7.20;65.50;;;;;;5094056;28;20696;-50
2021/01/14 09:42:59;;;;;;;11.17;3.23;;;7.20;65.90;;;;;;5093304;28;20634;-49
2021/01/14 09:45:26;;;;;;;3.43;1.90;;;7.20;65.60;;;;;;5093496;28;20657;-50
2021/01/14 09:47:54;;;;;;;4.33;2.57;;;7.20;65.30;;;;;;5093401;28;20704;-49
2021/01/14 09:50:25;;;;;;;6.90;3.20;;;7.20;65.40;;;;;;5094169;28;20630;-49
2021/01/14 09:52:52;;;;;;;9.90;2.83;;;7.20;65.80;;;;;;5093692;28;20702;-49
2021/01/14 09:55:19;;;;;;;5.17;2.80;;;7.10;65.90;;;;;;5093880;28;20758;-50
2021/01/14 09:57:49;;;;;;;3.40;1.90;;;7.20;66.00;;;;;;5093170;28;20683;-50
2021/01/14 10:00:19;;;;;;;5.40;2.60;;;7.30;65.50;;;;;;5091742;28;20688;-49
2021/01/14 10:02:48;;;;;;;7.23;3.10;;;7.30;65.40;;;;;;5093680;28;20936;-50
2021/01/14 10:05:15;;;;;;;4.30;2.97;;;7.30;64.60;;;;;;5094203;28;20630;-49
2021/01/14 10:07:43;;;;;;;7.00;2.33;;;7.30;64.10;;;;;;5093355;28;20707;-49
2021/01/14 10:10:10;;;;;;;3.30;2.40;;;7.30;64.20;;;;;;5092972;28;20992;-49
2021/01/14 10:12:37;;;;;;;3.13;1.90;;;7.30;63.70;;;;;;5093230;28;20694;-50
2021/01/14 10:15:10;;;;;;;3.47;1.90;;;7.40;63.40;;;;;;5093195;28;20626;-49
2021/01/14 10:17:38;;;;;;;2.00;1.80;;;7.40;62.50;;;;;;5093237;28;20665;-50
2021/01/14 10:20:06;;;;;;;6.50;2.17;;;7.40;62.00;;;;;;5093415;28;20653;-50
2021/01/14 10:22:36;;;;;;;5.30;2.50;;;7.40;62.00;;;;;;5092883;28;20627;-50
2021/01/14 10:25:08;;;;;;;2.60;2.40;;;7.50;61.90;;;;;;5092570;28;20672;-50
2021/01/14 10:27:35;;;;;;;3.20;2.00;;;7.50;61.70;;;;;;5092675;28;21019;-49
2021/01/14 10:30:17;;;;;;;4.57;1.83;;;7.50;60.80;;;;;;5092773;28;20622;-48
2021/01/14 10:32:44;;;;;;;3.37;2.53;;;7.50;60.60;;;;;;5091709;28;20626;-50
2021/01/14 10:35:22;;;;;;;5.23;1.67;;;7.60;60.20;;;;;;5092376;28;20972;-49
2021/01/14 10:38:09;;;;;;;3.07;2.77;;;7.60;58.50;;;;;;5092411;28;20686;-49
2021/01/14 10:40:37;;;;;;;2.70;1.50;;;7.60;58.10;;;;;;5092380;28;20708;-50
2021/01/14 10:43:04;;;;;;;8.03;2.13;;;7.60;58.80;;;;;;5092527;28;20718;-49
2021/01/14 10:45:33;;;;;;;3.80;2.10;;;7.60;58.50;;;;;;5092556;28;20626;-49
2021/01/14 10:48:13;;;;;;;2.20;1.70;;;7.50;58.30;;;;;;5092116;28;20782;-51
2021/01/14 10:50:48;;;;;;;5.07;1.67;;;7.60;58.40;;;;;;5092010;28;20755;-49
2021/01/14 10:53:25;;;;;;;3.37;2.07;;;7.60;58.00;;;;;;5092016;28;20698;-49
2021/01/14 10:56:04;;;;;;;7.00;1.90;;;7.60;57.90;;;;;;5092050;28;20634;-49
2021/01/14 10:58:30;;;;;;;8.53;3.40;;;7.60;57.60;;;;;;5091979;28;20655;-49
2021/01/14 11:00:57;;;;;;;7.30;5.53;;;7.60;57.20;;;;;;5092235;28;21006;-50
2021/01/14 11:03:24;;;;;;;3.10;1.97;;;7.60;57.10;;;;;;5091965;28;20674;-49
2021/01/14 11:05:52;;;;;;;2.93;2.60;;;7.70;57.00;;;;;;5091578;28;21182;-49
2021/01/14 11:08:19;;;;;;;3.47;1.50;;;7.70;56.70;;;;;;5091682;28;21248;-48
2021/01/14 11:10:48;;;;;;;3.70;1.83;;;7.70;56.70;;;;;;5090240;28;20975;-51
2021/01/14 11:13:15;;;;;;;2.40;2.10;;;7.70;56.50;;;;;;5091661;28;20658;-50
2021/01/14 11:15:42;;;;;;;5.67;2.37;;;7.80;56.20;;;;;;5091884;28;20655;-49
2021/01/14 11:18:10;;;;;;;2.43;1.60;;;7.80;56.20;;;;;;5091673;28;20650;-49
2021/01/14 11:20:37;;;;;;;5.87;2.37;;;7.80;55.80;;;;;;5091722;28;21020;-49
2021/01/14 11:23:04;;;;;;;5.73;1.60;;;7.70;55.50;;;;;;5091235;28;21035;-51
2021/01/14 11:25:31;;;;;;;3.27;1.40;;;7.70;55.60;;;;;;5092086;28;20699;-49
2021/01/14 11:27:59;;;;;;;6.23;2.30;;;7.70;55.90;;;;;;5091812;28;21298;-52
2021/01/14 11:30:26;;;;;;;2.97;1.43;;;7.80;56.00;;;;;;5092022;28;20689;-50
2021/01/14 11:32:53;;;;;;;2.63;1.27;;;7.80;55.80;;;;;;5091764;28;20706;-49
2021/01/14 11:35:20;;;;;;;3.10;2.10;;;7.80;55.70;;;;;;5090405;28;20701;-50
2021/01/14 11:37:46;;;;;;;4.87;2.40;;;7.80;55.50;;;;;;5091258;28;20691;-50
2021/01/14 11:40:14;;;;;;;4.97;2.40;;;7.80;55.30;;;;;;5092160;28;21043;-48
2021/01/14 11:42:41;;;;;;;7.20;1.80;;;7.80;55.50;;;;;;5092147;28;20634;-52
2021/01/14 11:45:09;;;;;;;2.20;1.60;;;7.80;55.80;;;;;;5091820;28;20651;-49
2021/01/14 11:47:37;;;;;;;2.50;2.20;;;7.90;55.80;;;;;;5090666;28;20671;-50
2021/01/14 11:50:05;;;;;;;5.43;2.10;;;7.90;55.50;;;;;;5092238;28;20639;-50
2021/01/14 11:52:31;;;;;;;5.13;2.87;;;8.00;54.90;;;;;;5091791;28;20691;-51
2021/01/14 11:54:58;;;;;;;6.40;2.13;;;8.00;55.20;;;;;;5091655;28;20670;-51
2021/01/14 11:57:28;;;;;;;8.50;4.27;;;8.00;55.20;;;;;;5092502;28;20734;-50
2021/01/14 11:59:55;;;;;;;2.60;2.03;;;8.00;55.30;;;;;;5092341;28;20627;-50
2021/01/14 12:02:23;;;;;;;5.43;2.17;;;8.00;55.10;;;;;;5090100;28;21179;-50
2021/01/14 12:04:50;;;;;;;5.37;2.00;;;8.10;55.20;;;;;;5092291;28;21205;-51
2021/01/14 12:07:17;;;;;;;4.67;2.50;;;8.10;54.70;;;;;;5091546;28;20651;-50
2021/01/14 12:09:43;;;;;;;5.73;2.83;;;8.10;54.70;;;;;;5092195;28;20734;-50
2021/01/14 12:12:10;;;;;;;5.00;2.10;;;8.10;54.60;;;;;;5092123;28;20632;-50
2021/01/14 12:14:37;;;;;;;2.50;2.10;;;8.10;54.50;;;;;;5091388;28;20688;-49
2021/01/14 12:17:04;;;;;;;5.80;2.40;;;8.20;54.20;;;;;;5092683;28;20636;-51
2021/01/14 12:19:32;;;;;;;3.80;1.77;;;8.20;53.60;;;;;;5092252;28;20624;-48
2021/01/14 12:22:03;;;;;;;3.50;1.50;;;8.20;53.80;;;;;;5092100;28;20625;-50
2021/01/14 12:24:29;;;;;;;4.27;1.90;;;8.30;53.70;;;;;;5091460;28;20612;-51
2021/01/14 12:26:56;;;;;;;2.60;1.83;;;8.20;53.90;;;;;;5091156;28;21222;-50
2021/01/14 12:29:23;;;;;;;1.87;1.33;;;8.20;54.00;;;;;;5091694;28;20623;-48
2021/01/14 12:31:50;;;;;;;2.20;1.87;;;8.20;54.20;;;;;;5089881;28;20626;-50
2021/01/14 12:34:17;;;;;;;5.50;2.10;;;8.20;54.20;;;;;;5092177;28;21296;-51
2021/01/14 12:36:45;;;;;;;3.10;2.47;;;8.20;54.60;;;;;;5092707;28;20606;-50
2021/01/14 12:39:12;;;;;;;7.33;2.57;;;8.20;54.50;;;;;;5092532;28;20647;-50
2021/01/14 12:41:41;;;;;;;1.50;1.40;;;8.20;54.30;;;;;;5090742;28;20936;-49
2021/01/14 12:44:10;;;;;;;4.40;2.10;;;8.20;54.20;;;;;;5092188;28;20605;-50
2021/01/14 12:46:37;;;;;;;2.33;1.80;;;8.20;54.10;;;;;;5091253;28;20627;-50
2021/01/14 12:49:05;;;;;;;3.17;1.77;;;8.20;54.30;;;;;;5089677;28;20733;-50
2021/01/14 12:51:32;;;;;;;6.83;2.43;;;8.20;54.50;;;;;;5089498;28;20684;-49
2021/01/14 12:54:00;;;;;;;4.83;2.43;;;8.20;54.60;;;;;;5090656;28;20698;-51
2021/01/14 12:56:27;;;;;;;2.10;1.70;;;8.20;54.20;;;;;;5091317;28;20979;-52
2021/01/14 12:59:04;;;;;;;1.90;1.70;;;8.20;54.50;;;;;;5090846;28;20658;-51
2021/01/14 13:01:33;;;;;;;2.00;1.80;;;8.20;54.40;;;;;;5091345;28;20619;-51
2021/01/14 13:04:01;;;;;;;3.33;2.30;;;8.20;54.40;;;;;;5090942;28;20623;-50
2021/01/14 13:06:29;;;;;;;1.97;1.77;;;8.20;53.80;;;;;;5088957;28;20695;-50